createdAt,value
2023-09-01T00:01:13.439Z,100.00
2023-09-01T00:04:51.375Z,100.00
2023-09-01T00:07:58.128Z,100.00
2023-09-01T00:11:03.965Z,100.00
2023-09-01T00:14:09.909Z,100.00
2023-09-01T00:17:16.126Z,100.00
2023-09-01T00:20:22.149Z,100.00
2023-09-01T00:23:29.824Z,100.00
2023-09-01T00:26:35.908Z,100.00
2023-09-01T00:29:42.428Z,100.00
2023-09-01T00:32:48.423Z,100.00
2023-09-01T00:35:55.701Z,100.00
2023-09-01T00:39:03.265Z,100.00
2023-09-01T00:42:09.539Z,100.00
2023-09-01T00:45:16.565Z,100.00
2023-09-01T00:48:23.153Z,100.00
2023-09-01T00:51:31.658Z,100.00
2023-09-01T00:54:37.978Z,100.00
2023-09-01T00:57:43.991Z,100.00
2023-09-01T01:00:50.266Z,100.00
2023-09-01T01:03:56.744Z,100.00
2023-09-01T01:07:21.624Z,100.00
2023-09-01T01:10:40.640Z,100.00
2023-09-01T01:13:49.436Z,100.00
2023-09-01T01:16:56.362Z,100.00
2023-09-01T01:20:16.963Z,100.00
2023-09-01T01:23:24.847Z,100.00
2023-09-01T01:26:30.449Z,100.00
2023-09-01T01:29:36.064Z,100.00
2023-09-01T01:32:44.329Z,100.00
2023-09-01T01:36:35.224Z,100.00
2023-09-01T01:39:44.368Z,100.00
2023-09-01T01:42:53.324Z,100.00
2023-09-01T01:46:00.496Z,100.00
2023-09-01T01:49:11.598Z,100.00
2023-09-01T01:52:17.751Z,100.00
2023-09-01T01:55:23.790Z,100.00
2023-09-01T01:58:29.559Z,100.00
2023-09-01T02:01:36.158Z,100.00
2023-09-01T02:04:42.246Z,100.00
2023-09-01T02:07:48.129Z,100.00
2023-09-01T02:10:54.481Z,100.00
2023-09-01T02:14:01.341Z,100.00
2023-09-01T02:17:08.720Z,100.00
2023-09-01T02:20:20.447Z,100.00
2023-09-01T02:23:28.855Z,100.00
2023-09-01T02:26:35.686Z,100.00
2023-09-01T02:29:42.543Z,100.00
2023-09-01T02:32:49.839Z,100.00
2023-09-01T02:36:28.071Z,100.00
2023-09-01T02:39:34.688Z,100.00
2023-09-01T02:42:42.754Z,100.00
2023-09-01T02:45:48.863Z,100.00
2023-09-01T02:48:55.162Z,100.00
2023-09-01T02:52:01.737Z,100.00
2023-09-01T02:55:08.184Z,100.00
2023-09-01T02:58:14.688Z,100.00
2023-09-01T03:01:21.759Z,100.00
2023-09-01T03:04:27.592Z,100.00
2023-09-01T03:07:34.046Z,100.00
2023-09-01T03:10:40.337Z,100.00
2023-09-01T03:13:47.921Z,100.00
2023-09-01T03:16:54.891Z,100.00
2023-09-01T03:20:01.839Z,100.00
2023-09-01T03:23:08.956Z,100.00
2023-09-01T03:26:14.866Z,100.00
2023-09-01T03:29:21.794Z,100.00
2023-09-01T03:32:32.711Z,100.00
2023-09-01T03:35:39.301Z,100.00
2023-09-01T03:38:45.815Z,100.00
2023-09-01T03:41:52.342Z,100.00
2023-09-01T03:44:58.221Z,100.00
2023-09-01T03:48:05.681Z,100.00
2023-09-01T03:51:19.387Z,100.00
2023-09-01T03:54:25.876Z,100.00
2023-09-01T03:57:32.091Z,100.00
2023-09-01T04:00:38.825Z,100.00
2023-09-01T04:03:46.378Z,100.00
2023-09-01T04:06:53.462Z,100.00
2023-09-01T04:10:00.162Z,100.00
2023-09-01T04:13:06.046Z,100.00
2023-09-01T04:16:12.516Z,100.00
2023-09-01T04:19:19.337Z,100.00
2023-09-01T04:22:25.648Z,100.00
2023-09-01T04:25:34.491Z,100.00
2023-09-01T04:28:41.325Z,100.00
2023-09-01T04:31:49.365Z,100.00
2023-09-01T04:34:57.603Z,100.00
2023-09-01T04:38:04.655Z,100.00
2023-09-01T04:41:11.230Z,100.00
2023-09-01T04:44:17.159Z,100.00
2023-09-01T04:47:22.960Z,100.00
2023-09-01T04:50:30.128Z,100.00
2023-09-01T04:53:36.463Z,100.00
2023-09-01T04:56:43.809Z,100.00
2023-09-01T04:59:50.183Z,100.00
2023-09-01T05:02:56.102Z,100.00
2023-09-01T05:06:02.536Z,100.00
2023-09-01T05:09:08.282Z,100.00
2023-09-01T05:12:13.963Z,100.00
2023-09-01T05:15:20.639Z,100.00
2023-09-01T05:18:27.807Z,100.00
2023-09-01T05:21:34.663Z,100.00
2023-09-01T05:24:42.943Z,100.00
2023-09-01T05:27:49.298Z,100.00
2023-09-01T05:30:59.042Z,100.00
2023-09-01T05:34:08.305Z,100.00
2023-09-01T05:37:15.230Z,100.00
2023-09-01T05:40:22.105Z,100.00
2023-09-01T05:43:27.742Z,100.00
2023-09-01T05:46:33.476Z,100.00
2023-09-01T05:49:39.286Z,100.00
2023-09-01T05:52:44.852Z,100.00
2023-09-01T05:55:50.472Z,100.00
2023-09-01T05:58:55.385Z,100.00
2023-09-01T06:02:01.360Z,100.00
2023-09-01T06:05:07.248Z,100.00
2023-09-01T06:08:12.852Z,100.00
2023-09-01T06:11:19.179Z,100.00
2023-09-01T06:14:24.702Z,100.00
2023-09-01T06:17:45.381Z,100.00
2023-09-01T06:20:52.392Z,100.00
2023-09-01T06:23:57.952Z,100.00
2023-09-01T06:27:04.613Z,100.00
2023-09-01T06:30:09.948Z,100.00
2023-09-01T06:33:15.702Z,100.00
2023-09-01T06:36:21.186Z,100.00
2023-09-01T06:39:26.715Z,100.00
2023-09-01T06:42:32.613Z,100.00
2023-09-01T06:45:38.755Z,100.00
2023-09-01T06:48:44.860Z,100.00
2023-09-01T06:51:50.631Z,100.00
2023-09-01T06:54:56.807Z,100.00
2023-09-01T06:58:02.218Z,100.00
2023-09-01T07:01:12.772Z,100.00
2023-09-01T07:04:18.571Z,100.00
2023-09-01T07:07:24.224Z,100.00
2023-09-01T07:10:29.865Z,100.00
2023-09-01T07:13:35.394Z,100.00
2023-09-01T07:16:41.120Z,100.00
2023-09-01T07:19:47.038Z,100.00
2023-09-01T07:22:52.261Z,100.00
2023-09-01T07:26:00.737Z,100.00
2023-09-01T07:29:06.417Z,100.00
2023-09-01T07:32:11.998Z,100.00
2023-09-01T07:35:17.899Z,100.00
2023-09-01T07:38:23.232Z,100.00
2023-09-01T07:41:28.774Z,100.00
2023-09-01T07:44:34.302Z,100.00
2023-09-01T07:47:40.420Z,100.00
2023-09-01T07:50:47.554Z,100.00
2023-09-01T07:53:53.105Z,100.00
2023-09-01T07:56:59.010Z,100.00
2023-09-01T08:00:08.852Z,100.00
2023-09-01T08:03:20.586Z,100.00
2023-09-01T08:06:32.122Z,100.00
2023-09-01T08:09:37.952Z,100.00
2023-09-01T08:12:44.978Z,100.00
2023-09-01T08:15:51.056Z,100.00
2023-09-01T08:19:00.535Z,100.00
2023-09-01T08:22:05.780Z,100.00
2023-09-01T08:25:11.735Z,100.00
2023-09-01T08:28:18.129Z,100.00
2023-09-01T08:31:23.756Z,100.00
2023-09-01T08:34:29.849Z,100.00
2023-09-01T08:37:35.797Z,100.00
2023-09-01T08:40:41.484Z,100.00
2023-09-01T08:43:52.077Z,100.00
2023-09-01T08:46:59.277Z,100.00
2023-09-01T08:50:05.401Z,100.00
2023-09-01T08:53:11.526Z,100.00
2023-09-01T08:56:16.783Z,100.00
2023-09-01T08:59:22.696Z,100.00
2023-09-01T09:02:28.026Z,100.00
2023-09-01T09:05:35.333Z,100.00
2023-09-01T09:08:40.708Z,100.00
2023-09-01T09:12:00.079Z,100.00
2023-09-01T09:15:06.935Z,100.00
2023-09-01T09:18:29.080Z,100.00
2023-09-01T09:21:35.300Z,100.00
2023-09-01T09:24:41.254Z,100.00
2023-09-01T09:27:47.263Z,100.00
2023-09-01T09:30:56.260Z,100.00
2023-09-01T09:34:17.083Z,100.00
2023-09-01T09:37:22.737Z,100.00
2023-09-01T09:40:29.289Z,100.00
2023-09-01T09:43:48.781Z,100.00
2023-09-01T09:46:55.694Z,100.00
2023-09-01T09:50:04.154Z,100.00
2023-09-01T09:53:14.889Z,100.00
2023-09-01T09:56:36.854Z,100.00
2023-09-01T10:00:03.029Z,100.00
2023-09-01T10:03:22.919Z,100.00
2023-09-01T10:06:29.424Z,100.00
2023-09-01T10:09:35.075Z,100.00
2023-09-01T10:12:41.722Z,100.00
2023-09-01T10:15:49.890Z,100.00
2023-09-01T10:18:56.178Z,100.00
2023-09-01T10:22:02.385Z,100.00
2023-09-01T10:25:27.347Z,100.00
2023-09-01T10:28:53.455Z,99.14
2023-09-01T10:32:18.040Z,96.94
2023-09-01T10:35:39.811Z,96.28
2023-09-01T10:38:45.176Z,92.90
2023-09-01T10:42:01.784Z,93.34
2023-09-01T10:45:09.568Z,92.97
2023-09-01T10:48:54.054Z,90.32
2023-09-01T10:52:13.497Z,93.75
2023-09-01T10:55:19.049Z,90.74
2023-09-01T10:58:24.728Z,92.29
2023-09-01T11:01:32.507Z,90.55
2023-09-01T11:04:41.568Z,90.35
2023-09-01T11:08:18.989Z,89.51
2023-09-01T11:11:24.906Z,89.79
2023-09-01T11:14:32.321Z,85.41
2023-09-01T11:17:40.126Z,84.20
2023-09-01T11:20:46.999Z,88.45
2023-09-01T11:24:01.556Z,89.53
2023-09-01T11:27:07.606Z,83.64
2023-09-01T11:30:14.001Z,85.85
2023-09-01T11:33:23.546Z,84.98
2023-09-01T11:36:29.435Z,86.37
2023-09-01T11:39:34.600Z,83.86
2023-09-01T11:42:43.948Z,82.85
2023-09-01T11:45:50.051Z,83.26
2023-09-01T11:48:55.988Z,80.93
2023-09-01T11:52:02.262Z,82.45
2023-09-01T11:55:08.294Z,83.59
2023-09-01T11:58:13.917Z,80.76
2023-09-01T12:01:29.539Z,81.30
2023-09-01T12:04:34.914Z,80.76
2023-09-01T12:07:40.244Z,81.32
2023-09-01T12:10:45.732Z,78.59
2023-09-01T12:16:43.112Z,75.38
2023-09-01T12:19:51.969Z,76.08
2023-09-01T12:22:58.213Z,77.19
2023-09-01T12:26:04.689Z,77.89
2023-09-01T12:29:11.320Z,76.52
2023-09-01T12:32:18.424Z,76.91
2023-09-01T12:35:23.613Z,76.73
2023-09-01T12:38:29.425Z,74.91
2023-09-01T12:41:34.792Z,77.57
2023-09-01T12:44:40.247Z,79.05
2023-09-01T12:47:45.459Z,76.86
2023-09-01T12:50:51.437Z,80.63
2023-09-01T12:53:57.042Z,76.96
2023-09-01T12:57:02.393Z,76.30
2023-09-01T13:00:08.852Z,72.73
2023-09-01T13:03:14.522Z,71.50
2023-09-01T13:06:20.564Z,76.40
2023-09-01T13:09:25.930Z,74.23
2023-09-01T13:12:31.897Z,71.88
2023-09-01T13:15:37.360Z,69.13
2023-09-01T13:18:43.270Z,70.44
2023-09-01T13:21:48.471Z,71.58
2023-09-01T13:24:54.453Z,69.43
2023-09-01T13:27:59.804Z,70.34
2023-09-01T13:31:05.625Z,66.79
2023-09-01T13:34:11.205Z,68.13
2023-09-01T13:37:17.104Z,68.27
2023-09-01T13:40:22.385Z,68.32
2023-09-01T13:43:28.197Z,67.72
2023-09-01T13:46:35.537Z,69.48
2023-09-01T13:49:44.389Z,67.37
2023-09-01T13:52:50.732Z,67.04
2023-09-01T13:55:55.918Z,66.47
2023-09-01T13:59:01.775Z,67.41
2023-09-01T14:02:08.000Z,64.06
2023-09-01T14:05:14.090Z,61.80
2023-09-01T14:08:19.711Z,60.28
2023-09-01T14:11:25.026Z,60.93
2023-09-01T14:14:31.221Z,60.91
2023-09-01T14:17:36.478Z,61.45
2023-09-01T14:20:42.425Z,63.49
2023-09-01T14:23:49.501Z,60.03
2023-09-01T14:26:57.364Z,60.95
2023-09-01T14:30:02.676Z,61.05
2023-09-01T14:33:16.657Z,57.67
2023-09-01T14:36:24.795Z,61.10
2023-09-01T14:39:30.056Z,60.07
2023-09-01T14:42:35.543Z,60.50
2023-09-01T14:45:41.367Z,58.16
2023-09-01T14:48:47.863Z,59.88
2023-09-01T14:51:53.248Z,61.25
2023-09-01T14:54:59.499Z,59.82
2023-09-01T14:58:05.233Z,59.28
2023-09-01T15:01:10.534Z,59.18
2023-09-01T15:04:16.353Z,58.36
2023-09-01T15:07:23.390Z,58.09
2023-09-01T15:10:28.844Z,57.65
2023-09-01T15:13:34.056Z,58.85
2023-09-01T15:16:40.045Z,58.42
2023-09-01T15:19:48.791Z,58.25
2023-09-01T15:22:54.290Z,59.14
2023-09-01T15:25:59.979Z,57.96
2023-09-01T15:29:05.734Z,59.20
2023-09-01T15:32:10.989Z,56.99
2023-09-01T15:35:22.455Z,59.04
2023-09-01T15:38:31.367Z,57.49
2023-09-01T15:41:36.906Z,58.03
2023-09-01T15:44:44.380Z,56.80
2023-09-01T15:47:49.988Z,56.68
2023-09-01T15:50:56.489Z,57.68
2023-09-01T15:54:01.882Z,58.23
2023-09-01T15:57:07.094Z,55.19
2023-09-01T16:00:13.075Z,58.73
2023-09-01T16:03:26.584Z,60.62
2023-09-01T16:06:41.999Z,60.68
2023-09-01T16:09:47.320Z,61.89
2023-09-01T16:12:53.627Z,60.75
2023-09-01T16:16:04.893Z,61.58
2023-09-01T16:19:12.254Z,61.79
2023-09-01T16:22:18.641Z,62.29
2023-09-01T16:25:24.670Z,61.85
2023-09-01T16:28:30.437Z,61.79
2023-09-01T16:31:39.737Z,63.98
2023-09-01T16:34:45.001Z,64.69
2023-09-01T16:37:50.503Z,62.89
2023-09-01T16:40:56.617Z,64.87
2023-09-01T16:44:03.056Z,65.30
2023-09-01T16:47:08.340Z,64.83
2023-09-01T16:50:13.741Z,62.42
2023-09-01T16:53:19.571Z,69.30
2023-09-01T16:56:25.889Z,67.67
2023-09-01T16:59:31.490Z,68.79
2023-09-01T17:02:37.322Z,73.86
2023-09-01T17:05:42.757Z,74.87
2023-09-01T17:08:50.000Z,76.85
2023-09-01T17:11:55.869Z,76.27
2023-09-01T17:15:02.531Z,77.01
2023-09-01T17:18:08.664Z,78.18
2023-09-01T17:21:14.184Z,78.39
2023-09-01T17:24:19.865Z,76.32
2023-09-01T17:27:27.651Z,80.64
2023-09-01T17:30:33.561Z,81.48
2023-09-01T17:33:39.501Z,82.13
2023-09-01T17:36:45.697Z,83.69
2023-09-01T17:39:51.303Z,87.37
2023-09-01T17:42:57.187Z,88.44
2023-09-01T17:46:03.212Z,90.43
2023-09-01T17:49:08.888Z,91.32
2023-09-01T17:52:14.680Z,92.68
2023-09-01T17:55:21.359Z,90.31
2023-09-01T17:58:27.291Z,91.94
2023-09-01T18:01:32.982Z,94.77
2023-09-01T18:04:38.321Z,94.65
2023-09-01T18:07:45.487Z,100.00
2023-09-01T18:10:53.364Z,100.00
2023-09-01T18:14:01.778Z,100.00
2023-09-01T18:17:11.485Z,100.00
2023-09-01T18:20:20.162Z,100.00
2023-09-01T18:23:28.497Z,100.00
2023-09-01T18:26:37.851Z,100.00
2023-09-01T18:29:45.283Z,100.00
2023-09-01T18:32:53.774Z,100.00
2023-09-01T18:36:00.606Z,100.00
2023-09-01T18:39:08.239Z,100.00
2023-09-01T18:42:39.573Z,100.00
2023-09-01T18:45:49.804Z,100.00
2023-09-01T18:49:06.781Z,100.00
2023-09-01T18:52:14.876Z,100.00
2023-09-01T18:55:22.691Z,100.00
2023-09-01T18:58:30.174Z,100.00
2023-09-01T19:01:38.760Z,100.00
2023-09-01T19:04:46.605Z,100.00
2023-09-01T19:07:53.159Z,100.00
2023-09-01T19:11:08.143Z,100.00
2023-09-01T19:14:16.230Z,100.00
2023-09-01T19:17:23.288Z,100.00
2023-09-01T19:20:34.577Z,100.00
2023-09-01T19:23:41.763Z,100.00
2023-09-01T19:26:48.336Z,100.00
2023-09-01T19:29:56.253Z,100.00
2023-09-01T19:33:05.207Z,100.00
2023-09-01T19:36:18.580Z,100.00
2023-09-01T19:39:27.331Z,100.00
2023-09-01T19:42:34.136Z,100.00
2023-09-01T19:45:41.580Z,100.00
2023-09-01T19:48:49.597Z,100.00
2023-09-01T19:51:56.954Z,100.00
2023-09-01T19:55:11.000Z,100.00
2023-09-01T19:58:18.989Z,100.00
2023-09-01T20:01:28.309Z,100.00
2023-09-01T20:04:37.524Z,100.00
2023-09-01T20:07:46.092Z,100.00
2023-09-01T20:10:53.898Z,100.00
2023-09-01T20:14:03.026Z,100.00
2023-09-01T20:17:11.005Z,100.00
2023-09-01T20:20:18.836Z,100.00
2023-09-01T20:23:27.075Z,100.00
2023-09-01T20:26:34.516Z,100.00
2023-09-01T20:29:41.284Z,100.00
2023-09-01T20:32:49.138Z,100.00
2023-09-01T20:35:57.302Z,100.00
2023-09-01T20:39:04.679Z,100.00
2023-09-01T20:42:12.386Z,100.00
2023-09-01T20:45:19.352Z,100.00
2023-09-01T20:48:26.699Z,100.00
2023-09-01T20:51:33.076Z,100.00
2023-09-01T20:54:44.984Z,100.00
2023-09-01T20:57:52.697Z,100.00
2023-09-01T21:00:59.560Z,100.00
2023-09-01T21:04:06.932Z,100.00
2023-09-01T21:07:14.999Z,100.00
2023-09-01T21:10:22.172Z,100.00
2023-09-01T21:13:29.153Z,100.00
2023-09-01T21:16:36.247Z,100.00
2023-09-01T21:19:44.426Z,100.00
2023-09-01T21:22:51.371Z,100.00
2023-09-01T21:25:59.680Z,100.00
2023-09-01T21:29:08.435Z,100.00
2023-09-01T21:32:22.525Z,100.00
2023-09-01T21:35:35.025Z,100.00
2023-09-01T21:38:43.540Z,100.00
2023-09-01T21:41:50.182Z,100.00
2023-09-01T21:45:46.837Z,100.00
2023-09-01T21:49:30.859Z,100.00
2023-09-01T21:52:48.035Z,100.00
2023-09-01T21:55:53.785Z,100.00
2023-09-01T21:59:00.680Z,100.00
2023-09-01T22:02:07.633Z,100.00
2023-09-01T22:05:13.983Z,100.00
2023-09-01T22:08:22.069Z,100.00
2023-09-01T22:11:27.747Z,100.00
2023-09-01T22:14:34.486Z,100.00
2023-09-01T22:17:40.586Z,100.00
2023-09-01T22:20:48.735Z,100.00
2023-09-01T22:23:54.797Z,100.00
2023-09-01T22:27:01.918Z,100.00
2023-09-01T22:30:08.739Z,100.00
2023-09-01T22:33:14.994Z,100.00
2023-09-01T22:36:20.983Z,100.00
2023-09-01T22:39:27.211Z,100.00
2023-09-01T22:42:34.544Z,100.00
2023-09-01T22:45:41.011Z,100.00
2023-09-01T22:48:47.126Z,100.00
2023-09-01T22:51:53.227Z,100.00
2023-09-01T22:54:59.985Z,100.00
2023-09-01T22:58:06.377Z,100.00
2023-09-01T23:01:13.125Z,100.00
2023-09-01T23:04:19.568Z,100.00
2023-09-01T23:07:25.348Z,100.00
2023-09-01T23:10:31.159Z,100.00
2023-09-01T23:13:36.720Z,100.00
2023-09-01T23:16:41.997Z,100.00
2023-09-01T23:19:48.156Z,100.00
2023-09-01T23:22:55.718Z,100.00
2023-09-01T23:26:01.758Z,100.00
2023-09-01T23:29:08.155Z,100.00
2023-09-01T23:32:14.814Z,100.00
2023-09-01T23:35:21.494Z,100.00
2023-09-01T23:38:27.541Z,100.00
2023-09-01T23:41:33.651Z,100.00
2023-09-01T23:44:40.205Z,100.00
2023-09-01T23:47:47.557Z,100.00
2023-09-01T23:50:54.849Z,100.00
2023-09-01T23:54:00.789Z,100.00
2023-09-01T23:57:07.581Z,100.00
